Moleson — HBLE — position and weather

sailwx.info

Track history (hours):
 
Tides and Currents Weather Stations Pressure Air Temp Water Temp Dewpoint Dewpoint Depression Visibility Wind Speed Wind Dir Waves Ship Positions

Moleson

Last reported at 2017-Jan-11 12:20 UTC. Time now 2017-Feb-20 04:53 UTC.
Position N 38°47' W 030°30'.
Warning: this ship's position is 39 days out of date.

Length 181 m; draft 9.2 m.

Type: Cargo ship. MMSI: 269039000.

Date/timePositionNaut miles runAvg speedWind from/ knotsBaromVisibWave heightAir tempDewpointWater temp
2017-Jan-11 12:20N 38°47' W 030°30'1112.8
2017-Jan-11 11:28N 38°52' W 030°17'1212.8
2017-Jan-11 10:33N 38°57' W 030°04'1312.9
2017-Jan-11 09:34N 39°02' W 029°49'1312.9
2017-Jan-11 08:33N 39°07' W 029°34'1313.0
2017-Jan-11 07:33N 39°12' W 029°18'1313.1
2017-Jan-11 06:33N 39°17' W 029°02'1313.1
2017-Jan-11 05:33N 39°22' W 028°47'1313.4
2017-Jan-11 04:33N 39°26' W 028°30'1313.1
2017-Jan-11 03:33N 39°31' W 028°15'1312.7
2017-Jan-11 02:33N 39°36' W 027°59'1312.8
2017-Jan-11 01:33N 39°41' W 027°44'1412.7
2017-Jan-11 00:30N 39°46' W 027°28'1212.8
2017-Jan-10 23:33N 39°51' W 027°13'1412.8
2017-Jan-10 22:27N 39°56' W 026°56'1212.6
2017-Jan-10 21:29N 40°00' W 026°41'1212.6
2017-Jan-10 20:33N 40°05' W 026°27'3912.6
2017-Jan-10 17:29N 40°20' W 025°40'5512.6
2017-Jan-10 13:05N 40°40' W 024°32'4512.5
2017-Jan-10 09:29N 40°57' W 023°37'1212.6
2017-Jan-10 08:33N 41°02' W 023°23'  
2017-Jan-07 08:04N 46°33' W 004°20'711.9
2017-Jan-07 07:28N 46°36' W 004°10'1212.1
2017-Jan-07 06:28N 46°40' W 003°54'1112.5
2017-Jan-07 05:33N 46°44' W 003°38'1212.3
2017-Jan-07 04:33N 46°49' W 003°22'1312.7
2017-Jan-07 03:33N 46°54' W 003°05'1312.8
2017-Jan-07 02:33N 46°59' W 002°47'1111.2
2017-Jan-07 01:33N 47°03' W 002°32'9 8.9
2017-Jan-07 00:33N 47°08' W 002°21'1110.6
2017-Jan-06 23:33N 47°16' W 002°11'3 2.7
2017-Jan-06 22:31N 47°18' W 002°08'0 0.0
2017-Jan-06 21:31N 47°18' W 002°08'0 0.0
2017-Jan-06 20:31N 47°18' W 002°08'0 0.0
2017-Jan-06 19:28N 47°18' W 002°08'0 0.0
2017-Jan-06 18:31N 47°18' W 002°08'0 0.0
2017-Jan-06 17:31N 47°18' W 002°08'0 0.0
2017-Jan-06 16:31N 47°18' W 002°08'0 0.0
2017-Jan-06 15:31N 47°18' W 002°08'0 0.0
2017-Jan-06 14:28N 47°18' W 002°08'0 0.0
2017-Jan-06 13:25N 47°18' W 002°08'0 0.0
2017-Jan-06 12:31N 47°18' W 002°08'0 0.0
2017-Jan-06 11:31N 47°18' W 002°08'0 0.0
2017-Jan-06 10:31N 47°18' W 002°08'0 0.0
2017-Jan-06 09:28N 47°18' W 002°08'0 0.0
2017-Jan-06 08:28N 47°18' W 002°08'0 0.0
2017-Jan-06 07:28N 47°18' W 002°08'0 0.0
2017-Jan-06 06:25N 47°18' W 002°08'0 0.0
2017-Jan-06 05:31N 47°18' W 002°08'0 0.0
2017-Jan-06 04:25N 47°18' W 002°08'0 0.0
2017-Jan-06 03:28N 47°18' W 002°08'0 0.0
2017-Jan-06 02:19N 47°18' W 002°08'0 0.0
2017-Jan-06 01:19N 47°18' W 002°08'0 0.0
2017-Jan-06 00:31N 47°18' W 002°08'0 0.0
2017-Jan-05 23:22N 47°18' W 002°08'0 0.0
2017-Jan-05 22:31N 47°18' W 002°08'0 0.0
2017-Jan-05 21:31N 47°18' W 002°08'0 0.0
2017-Jan-05 20:25N 47°18' W 002°08'0 0.0
2017-Jan-05 19:31N 47°18' W 002°08'0 0.0
2017-Jan-05 18:31N 47°18' W 002°08'0 0.0
2017-Jan-05 17:31N 47°18' W 002°08'0 0.0
2017-Jan-05 16:31N 47°18' W 002°08'0 0.0
2017-Jan-05 14:07N 47°18' W 002°08'0 0.0
2017-Jan-05 13:13N 47°18' W 002°08'0 0.0
2017-Jan-05 12:31N 47°18' W 002°08'0 0.0
2017-Jan-05 11:31N 47°18' W 002°08'0 0.0
2017-Jan-05 10:25N 47°18' W 002°08'0 0.0
2017-Jan-05 09:33N 47°18' W 002°08'6 6.4
2017-Jan-05 08:33N 47°17' W 001°59'9 9.0
2017-Jan-05 07:33N 47°13' W 001°47'6 6.2
2017-Jan-05 06:33N 47°12' W 001°38'1 1.0
2017-Jan-05 05:28N 47°12' W 001°36'0 0.0
2017-Jan-05 00:23N 47°12' W 001°36'0 0.0
2017-Jan-04 23:08N 47°12' W 001°36'0 0.0
2017-Jan-04 21:32N 47°12' W 001°36'0 0.0
2017-Jan-04 20:23N 47°12' W 001°36'0 0.0
2017-Jan-04 19:32N 47°12' W 001°36'0 0.0
2017-Jan-04 18:32N 47°12' W 001°36'0 0.0
2017-Jan-04 17:32N 47°12' W 001°36'0 0.0
2017-Jan-04 16:32N 47°12' W 001°36'0 0.0
2017-Jan-04 15:32N 47°12' W 001°36'0 0.0
2017-Jan-04 14:23N 47°12' W 001°36'0 0.0
2017-Jan-04 13:32N 47°12' W 001°36'0 0.0
2017-Jan-04 12:32N 47°12' W 001°36'0 0.0
2017-Jan-04 11:26N 47°12' W 001°36'0 0.0
2017-Jan-04 10:32N 47°12' W 001°36'0 0.0
2017-Jan-04 09:26N 47°12' W 001°36'0 0.0
2017-Jan-04 08:32N 47°12' W 001°36'0 0.0
2017-Jan-04 07:32N 47°12' W 001°36'0 0.0
2017-Jan-04 06:19N 47°12' W 001°36'0 0.0
2017-Jan-04 05:32N 47°12' W 001°36'0 0.0
2017-Jan-04 04:32N 47°12' W 001°36'0 0.0
2017-Jan-04 03:32N 47°12' W 001°36'0 0.0
2017-Jan-04 02:31N 47°12' W 001°36'0 0.0
2017-Jan-04 01:32N 47°12' W 001°36'0 0.0
2017-Jan-04 00:32N 47°12' W 001°36'0 0.0
2017-Jan-03 23:32N 47°12' W 001°36'0 0.0
2017-Jan-03 22:32N 47°12' W 001°36'0 0.0
2017-Jan-03 21:28N 47°12' W 001°36'0 0.0
2017-Jan-03 20:32N 47°12' W 001°36'0 0.0
2017-Jan-03 19:32N 47°12' W 001°36'0 0.0
2017-Jan-03 18:32N 47°12' W 001°36'0 0.0
2017-Jan-03 17:32N 47°12' W 001°36'0 0.0
2017-Jan-03 16:32N 47°12' W 001°36'0 0.0
2017-Jan-03 15:32N 47°12' W 001°36'0 0.0
2017-Jan-03 14:29N 47°12' W 001°36'0 0.0
2017-Jan-03 13:20N 47°12' W 001°36'0 0.0
2017-Jan-03 12:08N 47°12' W 001°36'0 0.0
2017-Jan-03 11:32N 47°12' W 001°36'0 0.0
2017-Jan-03 10:32N 47°12' W 001°36'0 0.0
2017-Jan-03 09:32N 47°12' W 001°36'0 0.0
2017-Jan-03 08:32N 47°12' W 001°36'0 0.0
2017-Jan-03 07:32N 47°12' W 001°36'0 0.3
2017-Jan-03 06:34N 47°12' W 001°36'8 8.4
2017-Jan-03 05:33N 47°13' W 001°48'1211.3
2017-Jan-03 04:32N 47°18' W 002°04'1111.6
2017-Jan-03 03:33N 47°12' W 002°17'7 7.3
2017-Jan-03 02:32N 47°06' W 002°24'7 7.4
2017-Jan-03 01:34N 47°02' W 002°33'10 9.4
2017-Jan-03 00:33N 46°56' W 002°44'9 8.7
2017-Jan-02 23:33N 46°50' W 002°52'4 2.0
2017-Jan-02 21:27N 46°52' W 002°48'3 1.5
2017-Jan-02 19:18N 46°55' W 002°44'1 1.1
2017-Jan-02 18:33N 46°55' W 002°43'6 5.6
2017-Jan-02 17:33N 46°52' W 002°50'9 8.2
2017-Jan-02 16:30N 46°48' W 003°01'8 8.8
2017-Jan-02 15:33N 46°51' W 003°12'10 9.7
2017-Jan-02 14:33N 46°56' W 003°24'1212.0
2017-Jan-02 13:33N 47°02' W 003°39'1211.7
2017-Jan-02 12:33N 47°09' W 003°54'1411.9
2017-Jan-02 11:24N 47°16' W 004°11'4612.0
2017-Jan-02 07:33N 47°40' W 005°09'130 9.9
2017-Jan-01 18:30N 49°49' W 005°06'9 9.7
2017-Jan-01 17:33N 49°58' W 005°01'10 9.5
2017-Jan-01 16:33N 50°08' W 005°02'0 0.1
2017-Jan-01 15:23N 50°08' W 005°02'0 0.0
2017-Jan-01 14:32N 50°08' W 005°02'0 0.0
2017-Jan-01 13:26N 50°08' W 005°02'0 0.0
2017-Jan-01 12:32N 50°08' W 005°02'  
Track history (hours):
 
Tides and Currents Weather Stations Pressure Air Temp Water Temp Dewpoint Dewpoint Depression Visibility Wind Speed Wind Dir Waves Ship Positions

Moleson

Last reported at 2017-Jan-11 12:20 UTC. Time now 2017-Feb-20 04:53 UTC.
Position N 38°47' W 030°30'.
Warning: this ship's position is 39 days out of date.

Length 181 m; draft 9.2 m.

Type: Cargo ship. MMSI: 269039000.

Date/timePositionNaut miles runAvg speedWind from/ knotsBaromVisibWave heightAir tempDewpointWater temp
2017-Jan-11 12:20N 38°47' W 030°30'1112.8
2017-Jan-11 11:28N 38°52' W 030°17'1212.8
2017-Jan-11 10:33N 38°57' W 030°04'1312.9
2017-Jan-11 09:34N 39°02' W 029°49'1312.9
2017-Jan-11 08:33N 39°07' W 029°34'1313.0
2017-Jan-11 07:33N 39°12' W 029°18'1313.1
2017-Jan-11 06:33N 39°17' W 029°02'1313.1
2017-Jan-11 05:33N 39°22' W 028°47'1313.4
2017-Jan-11 04:33N 39°26' W 028°30'1313.1
2017-Jan-11 03:33N 39°31' W 028°15'1312.7
2017-Jan-11 02:33N 39°36' W 027°59'1312.8
2017-Jan-11 01:33N 39°41' W 027°44'1412.7
2017-Jan-11 00:30N 39°46' W 027°28'1212.8
2017-Jan-10 23:33N 39°51' W 027°13'1412.8
2017-Jan-10 22:27N 39°56' W 026°56'1212.6
2017-Jan-10 21:29N 40°00' W 026°41'1212.6
2017-Jan-10 20:33N 40°05' W 026°27'3912.6
2017-Jan-10 17:29N 40°20' W 025°40'5512.6
2017-Jan-10 13:05N 40°40' W 024°32'4512.5
2017-Jan-10 09:29N 40°57' W 023°37'1212.6
2017-Jan-10 08:33N 41°02' W 023°23'  
2017-Jan-07 08:04N 46°33' W 004°20'711.9
2017-Jan-07 07:28N 46°36' W 004°10'1212.1
2017-Jan-07 06:28N 46°40' W 003°54'1112.5
2017-Jan-07 05:33N 46°44' W 003°38'1212.3
2017-Jan-07 04:33N 46°49' W 003°22'1312.7
2017-Jan-07 03:33N 46°54' W 003°05'1312.8
2017-Jan-07 02:33N 46°59' W 002°47'1111.2
2017-Jan-07 01:33N 47°03' W 002°32'9 8.9
2017-Jan-07 00:33N 47°08' W 002°21'1110.6
2017-Jan-06 23:33N 47°16' W 002°11'3 2.7
2017-Jan-06 22:31N 47°18' W 002°08'0 0.0
2017-Jan-06 21:31N 47°18' W 002°08'0 0.0
2017-Jan-06 20:31N 47°18' W 002°08'0 0.0
2017-Jan-06 19:28N 47°18' W 002°08'0 0.0
2017-Jan-06 18:31N 47°18' W 002°08'0 0.0
2017-Jan-06 17:31N 47°18' W 002°08'0 0.0
2017-Jan-06 16:31N 47°18' W 002°08'0 0.0
2017-Jan-06 15:31N 47°18' W 002°08'0 0.0
2017-Jan-06 14:28N 47°18' W 002°08'0 0.0
2017-Jan-06 13:25N 47°18' W 002°08'0 0.0
2017-Jan-06 12:31N 47°18' W 002°08'0 0.0
2017-Jan-06 11:31N 47°18' W 002°08'0 0.0
2017-Jan-06 10:31N 47°18' W 002°08'0 0.0
2017-Jan-06 09:28N 47°18' W 002°08'0 0.0
2017-Jan-06 08:28N 47°18' W 002°08'0 0.0
2017-Jan-06 07:28N 47°18' W 002°08'0 0.0
2017-Jan-06 06:25N 47°18' W 002°08'0 0.0
2017-Jan-06 05:31N 47°18' W 002°08'0 0.0
2017-Jan-06 04:25N 47°18' W 002°08'0 0.0
2017-Jan-06 03:28N 47°18' W 002°08'0 0.0
2017-Jan-06 02:19N 47°18' W 002°08'0 0.0
2017-Jan-06 01:19N 47°18' W 002°08'0 0.0
2017-Jan-06 00:31N 47°18' W 002°08'0 0.0
2017-Jan-05 23:22N 47°18' W 002°08'0 0.0
2017-Jan-05 22:31N 47°18' W 002°08'0 0.0
2017-Jan-05 21:31N 47°18' W 002°08'0 0.0
2017-Jan-05 20:25N 47°18' W 002°08'0 0.0
2017-Jan-05 19:31N 47°18' W 002°08'0 0.0
2017-Jan-05 18:31N 47°18' W 002°08'0 0.0
2017-Jan-05 17:31N 47°18' W 002°08'0 0.0
2017-Jan-05 16:31N 47°18' W 002°08'0 0.0
2017-Jan-05 14:07N 47°18' W 002°08'0 0.0
2017-Jan-05 13:13N 47°18' W 002°08'0 0.0
2017-Jan-05 12:31N 47°18' W 002°08'0 0.0
2017-Jan-05 11:31N 47°18' W 002°08'0 0.0
2017-Jan-05 10:25N 47°18' W 002°08'0 0.0
2017-Jan-05 09:33N 47°18' W 002°08'6 6.4
2017-Jan-05 08:33N 47°17' W 001°59'9 9.0
2017-Jan-05 07:33N 47°13' W 001°47'6 6.2
2017-Jan-05 06:33N 47°12' W 001°38'1 1.0
2017-Jan-05 05:28N 47°12' W 001°36'0 0.0
2017-Jan-05 00:23N 47°12' W 001°36'0 0.0
2017-Jan-04 23:08N 47°12' W 001°36'0 0.0
2017-Jan-04 21:32N 47°12' W 001°36'0 0.0
2017-Jan-04 20:23N 47°12' W 001°36'0 0.0
2017-Jan-04 19:32N 47°12' W 001°36'0 0.0
2017-Jan-04 18:32N 47°12' W 001°36'0 0.0
2017-Jan-04 17:32N 47°12' W 001°36'0 0.0
2017-Jan-04 16:32N 47°12' W 001°36'0 0.0
2017-Jan-04 15:32N 47°12' W 001°36'0 0.0
2017-Jan-04 14:23N 47°12' W 001°36'0 0.0
2017-Jan-04 13:32N 47°12' W 001°36'0 0.0
2017-Jan-04 12:32N 47°12' W 001°36'0 0.0
2017-Jan-04 11:26N 47°12' W 001°36'0 0.0
2017-Jan-04 10:32N 47°12' W 001°36'0 0.0
2017-Jan-04 09:26N 47°12' W 001°36'0 0.0
2017-Jan-04 08:32N 47°12' W 001°36'0 0.0
2017-Jan-04 07:32N 47°12' W 001°36'0 0.0
2017-Jan-04 06:19N 47°12' W 001°36'0 0.0
2017-Jan-04 05:32N 47°12' W 001°36'0 0.0
2017-Jan-04 04:32N 47°12' W 001°36'0 0.0
2017-Jan-04 03:32N 47°12' W 001°36'0 0.0
2017-Jan-04 02:31N 47°12' W 001°36'0 0.0
2017-Jan-04 01:32N 47°12' W 001°36'0 0.0
2017-Jan-04 00:32N 47°12' W 001°36'0 0.0
2017-Jan-03 23:32N 47°12' W 001°36'0 0.0
2017-Jan-03 22:32N 47°12' W 001°36'0 0.0
2017-Jan-03 21:28N 47°12' W 001°36'0 0.0
2017-Jan-03 20:32N 47°12' W 001°36'0 0.0
2017-Jan-03 19:32N 47°12' W 001°36'0 0.0
2017-Jan-03 18:32N 47°12' W 001°36'0 0.0
2017-Jan-03 17:32N 47°12' W 001°36'0 0.0
2017-Jan-03 16:32N 47°12' W 001°36'0 0.0
2017-Jan-03 15:32N 47°12' W 001°36'0 0.0
2017-Jan-03 14:29N 47°12' W 001°36'0 0.0
2017-Jan-03 13:20N 47°12' W 001°36'0 0.0
2017-Jan-03 12:08N 47°12' W 001°36'0 0.0
2017-Jan-03 11:32N 47°12' W 001°36'0 0.0
2017-Jan-03 10:32N 47°12' W 001°36'0 0.0
2017-Jan-03 09:32N 47°12' W 001°36'0 0.0
2017-Jan-03 08:32N 47°12' W 001°36'0 0.0
2017-Jan-03 07:32N 47°12' W 001°36'0 0.3
2017-Jan-03 06:34N 47°12' W 001°36'8 8.4
2017-Jan-03 05:33N 47°13' W 001°48'1211.3
2017-Jan-03 04:32N 47°18' W 002°04'1111.6
2017-Jan-03 03:33N 47°12' W 002°17'7 7.3
2017-Jan-03 02:32N 47°06' W 002°24'7 7.4
2017-Jan-03 01:34N 47°02' W 002°33'10 9.4
2017-Jan-03 00:33N 46°56' W 002°44'9 8.7
2017-Jan-02 23:33N 46°50' W 002°52'4 2.0
2017-Jan-02 21:27N 46°52' W 002°48'3 1.5
2017-Jan-02 19:18N 46°55' W 002°44'1 1.1
2017-Jan-02 18:33N 46°55' W 002°43'6 5.6
2017-Jan-02 17:33N 46°52' W 002°50'9 8.2
2017-Jan-02 16:30N 46°48' W 003°01'8 8.8
2017-Jan-02 15:33N 46°51' W 003°12'10 9.7
2017-Jan-02 14:33N 46°56' W 003°24'1212.0
2017-Jan-02 13:33N 47°02' W 003°39'1211.7
2017-Jan-02 12:33N 47°09' W 003°54'1411.9
2017-Jan-02 11:24N 47°16' W 004°11'4612.0
2017-Jan-02 07:33N 47°40' W 005°09'130 9.9
2017-Jan-01 18:30N 49°49' W 005°06'9 9.7
2017-Jan-01 17:33N 49°58' W 005°01'10 9.5
2017-Jan-01 16:33N 50°08' W 005°02'0 0.1
2017-Jan-01 15:23N 50°08' W 005°02'0 0.0
2017-Jan-01 14:32N 50°08' W 005°02'0 0.0
2017-Jan-01 13:26N 50°08' W 005°02'0 0.0
2017-Jan-01 12:32N 50°08' W 005°02'  

Dump ship's entire track history